createdAt,value
2018-01-26T00:00:07.277Z,99822.57
2018-01-26T00:02:34.814Z,99821.02
2018-01-26T00:05:02.288Z,99813.77
2018-01-26T00:07:29.748Z,99807.80
2018-01-26T00:09:57.306Z,99813.45
2018-01-26T00:12:26.140Z,99811.23
2018-01-26T00:14:53.646Z,99812.11
2018-01-26T00:17:21.118Z,99811.21
2018-01-26T00:19:48.753Z,99811.30
2018-01-26T00:22:16.237Z,99799.98
2018-01-26T00:24:43.718Z,99799.42
2018-01-26T00:27:11.179Z,99803.97
2018-01-26T00:29:38.662Z,99795.70
2018-01-26T00:32:06.135Z,99801.47
2018-01-26T00:34:33.621Z,99797.06
2018-01-26T00:37:01.078Z,99791.88
2018-01-26T00:39:28.532Z,99798.69
2018-01-26T00:41:56.050Z,99799.42
2018-01-26T00:44:23.566Z,99802.78
2018-01-26T00:46:51.140Z,99804.45
2018-01-26T00:49:18.599Z,99809.92
2018-01-26T00:51:46.090Z,99809.27
2018-01-26T00:54:13.532Z,99803.44
2018-01-26T00:56:40.998Z,99801.16
2018-01-26T00:59:08.494Z,99804.61
2018-01-26T01:01:35.975Z,99802.41
2018-01-26T01:04:03.479Z,99806.34
2018-01-26T01:06:30.971Z,99804.06
2018-01-26T01:08:58.454Z,99808.69
2018-01-26T01:11:25.920Z,99812.49
2018-01-26T01:13:53.406Z,99809.63
2018-01-26T01:16:20.917Z,99803.77
2018-01-26T01:18:48.419Z,99800.34
2018-01-26T01:21:16.018Z,99810.37
2018-01-26T01:23:43.495Z,99814.61
2018-01-26T01:26:10.953Z,99816.03
2018-01-26T01:28:38.771Z,99805.11
2018-01-26T01:31:06.251Z,99804.38
2018-01-26T01:33:33.752Z,99803.53
2018-01-26T01:36:01.252Z,99798.41
2018-01-26T01:38:28.735Z,99804.81
2018-01-26T01:40:56.193Z,99803.08
2018-01-26T01:43:23.705Z,99802.64
2018-01-26T01:45:51.186Z,99802.37
2018-01-26T01:48:18.695Z,99803.30
2018-01-26T01:50:46.217Z,99808.05
2018-01-26T01:53:13.763Z,99801.73
2018-01-26T01:55:41.247Z,99800.35
2018-01-26T01:58:08.753Z,99791.76
2018-01-26T02:00:36.262Z,99797.44
2018-01-26T02:03:03.859Z,99796.67
2018-01-26T02:05:31.356Z,99799.52
2018-01-26T02:07:58.864Z,99806.52
2018-01-26T02:10:26.400Z,99798.97
2018-01-26T02:12:53.850Z,99801.43
2018-01-26T02:15:21.333Z,99796.36
2018-01-26T02:17:48.809Z,99787.19
2018-01-26T02:20:16.302Z,99787.16
2018-01-26T02:22:43.775Z,99782.08
2018-01-26T02:25:11.282Z,99782.99
2018-01-26T02:27:38.745Z,99778.97
2018-01-26T02:30:06.233Z,99790.20
2018-01-26T02:32:34.240Z,99796.02
2018-01-26T02:35:01.739Z,99798.55
2018-01-26T02:37:29.193Z,99801.86
2018-01-26T02:39:56.663Z,99803.13
2018-01-26T02:42:24.366Z,99800.55
2018-01-26T02:44:51.832Z,99804.90
2018-01-26T02:47:19.334Z,99809.55
2018-01-26T02:49:46.798Z,99804.90
2018-01-26T02:52:14.418Z,99794.06
2018-01-26T02:54:42.239Z,99794.03
2018-01-26T02:57:09.765Z,99802.53
2018-01-26T02:59:37.249Z,99806.19
2018-01-26T03:02:04.858Z,99804.38
2018-01-26T03:04:32.464Z,99804.71
2018-01-26T03:06:59.975Z,99805.00
2018-01-26T03:09:27.494Z,99802.87
2018-01-26T03:11:54.943Z,99801.07
2018-01-26T03:14:22.430Z,99799.04
2018-01-26T03:16:49.935Z,99793.32
2018-01-26T03:19:17.453Z,99788.85
2018-01-26T03:21:44.926Z,99785.79
2018-01-26T03:24:12.469Z,99789.23
2018-01-26T03:26:39.941Z,99800.94
2018-01-26T03:29:07.482Z,99805.88
2018-01-26T03:31:35.015Z,99812.13
2018-01-26T03:34:02.979Z,99808.22
2018-01-26T03:36:30.590Z,99815.80
2018-01-26T03:38:58.068Z,99817.05
2018-01-26T03:41:25.598Z,99817.20
2018-01-26T03:43:53.142Z,99815.25
2018-01-26T03:46:20.694Z,99813.94
2018-01-26T03:48:48.191Z,99814.89
2018-01-26T03:51:16.499Z,99817.80
2018-01-26T03:53:43.957Z,99819.77
2018-01-26T03:56:11.464Z,99814.70
2018-01-26T11:56:14.506Z,99942.93
2018-01-26T11:58:41.966Z,99948.20
2018-01-26T12:01:09.418Z,99946.54
2018-01-26T12:03:36.941Z,99943.68
2018-01-26T12:06:04.467Z,99940.64
2018-01-26T12:08:32.050Z,99941.77
2018-01-26T12:10:59.588Z,99929.14
2018-01-26T12:13:27.453Z,99933.94
2018-01-26T12:15:56.749Z,99936.45
2018-01-26T12:18:25.214Z,99930.93
2018-01-26T12:20:52.658Z,99927.77
2018-01-26T12:23:20.379Z,99923.69
2018-01-26T12:25:48.402Z,99923.71
2018-01-26T12:28:17.138Z,99921.59
2018-01-26T12:30:45.389Z,99928.64
2018-01-26T12:33:13.110Z,99928.16
2018-01-26T12:35:41.583Z,99923.13
2018-01-26T12:38:09.058Z,99924.25
2018-01-26T12:40:38.986Z,99918.45
2018-01-26T12:43:07.694Z,99919.03
2018-01-26T12:45:43.944Z,99918.72
2018-01-26T12:48:13.302Z,99920.53
2018-01-26T12:50:41.174Z,99920.84
2018-01-26T12:53:10.273Z,99922.81
2018-01-26T12:58:28.331Z,99924.02
2018-01-26T13:00:59.320Z,99922.02
2018-01-26T13:03:27.394Z,99921.67
2018-01-26T13:05:55.010Z,99920.31
2018-01-26T13:08:22.506Z,99916.27
2018-01-26T13:10:51.055Z,99920.76
2018-01-26T13:13:18.790Z,99929.56
2018-01-26T13:15:46.305Z,99933.33
2018-01-26T13:18:14.001Z,99932.36
2018-01-26T13:20:42.197Z,99936.14
2018-01-26T13:23:09.820Z,99936.59
2018-01-26T13:25:37.508Z,99939.08
2018-01-26T13:28:04.995Z,99943.43
2018-01-26T13:30:32.618Z,99941.64
2018-01-26T13:33:00.637Z,99931.03
2018-01-26T13:35:29.070Z,99932.67
2018-01-26T13:37:57.031Z,99934.81
2018-01-26T13:40:24.707Z,99935.64
2018-01-26T13:42:53.775Z,99939.39
2018-01-26T13:50:47.162Z,99944.73
2018-01-26T13:53:17.243Z,99944.27
2018-01-26T13:55:45.204Z,99941.78
2018-01-26T13:58:17.727Z,99949.41
2018-01-26T14:00:50.344Z,99951.03
2018-01-26T14:06:19.446Z,99958.17
2018-01-26T14:21:33.066Z,99978.34
2018-01-26T14:29:49.265Z,99983.33
2018-01-26T14:32:17.530Z,99990.07
2018-01-26T14:35:03.360Z,99997.61
2018-01-26T14:37:46.798Z,99985.04
2018-01-26T14:40:18.175Z,99991.45
2018-01-26T14:46:01.902Z,99989.51
2018-01-26T14:48:43.671Z,99998.84
2018-01-26T14:51:13.740Z,100004.30
2018-01-26T14:56:38.563Z,100014.83
2018-01-26T14:59:06.330Z,100018.20
2018-01-26T15:04:39.547Z,100015.81
2018-01-26T15:07:07.328Z,100018.44
2018-01-26T15:09:34.920Z,100015.36
2018-01-26T15:12:02.461Z,100019.96
2018-01-26T15:14:30.148Z,100012.33
2018-01-26T15:16:57.711Z,100021.70
2018-01-26T15:19:25.185Z,100030.10
2018-01-26T15:21:52.702Z,100031.78
2018-01-26T15:24:20.253Z,100035.92
2018-01-26T15:26:47.749Z,100046.77
2018-01-26T15:29:15.254Z,100047.72
2018-01-26T15:31:42.768Z,100048.50
2018-01-26T15:34:10.394Z,100039.61
2018-01-26T15:36:37.940Z,100036.77
2018-01-26T15:39:07.594Z,100038.27
2018-01-26T15:41:35.310Z,100041.55
2018-01-26T15:44:12.096Z,100039.38
2018-01-26T15:46:40.383Z,100040.21
2018-01-26T15:49:09.051Z,100043.18
2018-01-26T15:51:49.271Z,100048.25
2018-01-26T15:57:02.899Z,100055.78
2018-01-26T16:09:10.525Z,100079.52
2018-01-26T16:11:37.990Z,100078.19
2018-01-26T16:14:05.641Z,100078.97
2018-01-26T16:16:33.405Z,100086.55
2018-01-26T16:19:01.302Z,100093.41
2018-01-26T16:21:29.183Z,100091.14
2018-01-26T16:23:56.676Z,100093.41
2018-01-26T16:26:24.255Z,100096.66
2018-01-26T16:28:55.100Z,100099.66
2018-01-26T16:31:22.745Z,100100.69
2018-01-26T16:33:50.322Z,100107.18
2018-01-26T16:36:18.033Z,100111.48
2018-01-26T16:38:45.523Z,100102.94
2018-01-26T16:41:13.053Z,100110.21
2018-01-26T16:43:40.556Z,100111.13
2018-01-26T16:46:08.075Z,100118.25
2018-01-26T16:48:35.626Z,100126.65
2018-01-26T16:51:03.239Z,100128.55
2018-01-26T16:53:31.365Z,100124.64
2018-01-26T16:55:58.901Z,100121.02
2018-01-26T16:58:26.567Z,100129.91
2018-01-26T17:00:54.600Z,100134.92
2018-01-26T17:03:22.956Z,100133.07
2018-01-26T17:05:50.560Z,100136.09
2018-01-26T17:08:18.082Z,100136.03
2018-01-26T17:10:46.121Z,100133.95
2018-01-26T17:13:13.830Z,100131.83
2018-01-26T17:15:41.319Z,100135.05
2018-01-26T17:18:08.811Z,100127.08
2018-01-26T17:20:38.273Z,100127.97
2018-01-26T17:23:05.929Z,100126.20
2018-01-26T17:28:08.272Z,100131.63
2018-01-26T17:30:40.294Z,100128.30
2018-01-26T17:33:07.830Z,100125.75
2018-01-26T17:35:35.360Z,100125.52
2018-01-26T17:38:02.902Z,100126.77
2018-01-26T17:40:30.446Z,100127.49
2018-01-26T17:42:57.975Z,100129.59
2018-01-26T17:45:26.270Z,100144.86
2018-01-26T17:47:53.841Z,100148.13
2018-01-26T17:50:21.521Z,100151.52
2018-01-26T17:52:49.201Z,100147.59
2018-01-26T17:55:17.514Z,100140.19
2018-01-26T17:57:45.080Z,100143.10
2018-01-26T18:00:12.650Z,100146.34
2018-01-26T18:02:40.518Z,100145.51
2018-01-26T18:05:08.207Z,100148.47
2018-01-26T18:07:35.800Z,100140.50
2018-01-26T18:10:03.541Z,100148.85
2018-01-26T18:12:31.971Z,100153.41
2018-01-26T18:14:59.554Z,100157.20
2018-01-26T18:17:27.172Z,100153.94
2018-01-26T18:31:33.899Z,100166.48
2018-01-26T18:34:01.405Z,100174.95
2018-01-26T18:36:29.073Z,100172.33
2018-01-26T18:38:56.662Z,100172.88
2018-01-26T18:41:24.208Z,100175.22
2018-01-26T18:43:51.881Z,100177.44
2018-01-26T18:46:21.444Z,100176.63
2018-01-26T18:48:49.813Z,100173.07
2018-01-26T18:51:18.934Z,100178.82
2018-01-26T18:53:46.536Z,100189.27
2018-01-26T18:56:14.088Z,100179.61
2018-01-26T18:58:42.482Z,100185.60
2018-01-26T19:01:10.051Z,100180.59
2018-01-26T19:03:37.652Z,100186.86
2018-01-26T19:06:05.352Z,100182.41
2018-01-26T19:08:36.532Z,100189.06
2018-01-26T19:11:04.046Z,100192.78
2018-01-26T19:13:31.665Z,100191.55
2018-01-26T19:15:59.255Z,100201.59
2018-01-26T19:18:27.003Z,100202.06
2018-01-26T19:20:54.572Z,100205.43
2018-01-26T19:23:23.372Z,100206.70
2018-01-26T19:25:52.866Z,100212.26
2018-01-26T19:28:20.590Z,100212.66
2018-01-26T19:30:51.063Z,100208.47
2018-01-26T19:33:18.941Z,100205.45
2018-01-26T19:35:46.569Z,100212.07
2018-01-26T19:38:14.532Z,100208.13
2018-01-26T19:40:42.086Z,100207.70
2018-01-26T19:43:10.559Z,100210.64
2018-01-26T19:45:41.301Z,100208.95
2018-01-26T19:48:09.161Z,100212.43
2018-01-26T19:50:37.024Z,100206.89
2018-01-26T19:53:08.458Z,100208.77
2018-01-26T19:55:37.686Z,100212.98
2018-01-26T19:58:05.652Z,100222.31
2018-01-26T20:00:33.544Z,100226.52
2018-01-26T20:20:19.390Z,100243.22
2018-01-26T20:22:49.798Z,100248.35
2018-01-26T20:25:18.057Z,100240.62
2018-01-26T20:46:50.926Z,100255.84
2018-01-26T20:49:20.654Z,100261.77
2018-01-26T20:51:51.395Z,100262.55
2018-01-26T20:54:20.884Z,100262.07
2018-01-26T20:56:50.153Z,100270.56
2018-01-26T21:02:29.316Z,100266.47
2018-01-26T21:04:59.694Z,100269.70
2018-01-26T21:07:29.398Z,100265.99
2018-01-26T21:09:57.391Z,100269.66
2018-01-26T21:12:25.230Z,100272.53
2018-01-26T21:14:56.688Z,100270.14
2018-01-26T21:17:24.347Z,100273.12
2018-01-26T21:19:51.864Z,100272.31
2018-01-26T21:22:19.349Z,100270.64
2018-01-26T21:24:47.101Z,100274.92
2018-01-26T21:27:16.511Z,100279.33
2018-01-26T21:29:44.121Z,100279.20
2018-01-26T21:32:11.638Z,100285.92
2018-01-26T21:34:42.599Z,100286.25
2018-01-26T21:45:04.719Z,100284.73
2018-01-26T22:04:57.804Z,100302.17
2018-01-26T22:07:31.066Z,100309.28
2018-01-26T22:26:07.680Z,100341.55
2018-01-26T22:28:40.067Z,100334.71
2018-01-26T22:31:07.807Z,100336.44
2018-01-26T22:33:35.892Z,100334.06
2018-01-26T22:36:05.719Z,100337.83
2018-01-26T22:38:34.079Z,100337.19
2018-01-26T22:41:02.547Z,100342.76
2018-01-26T22:43:35.988Z,100342.33
2018-01-26T22:46:12.505Z,100345.23
2018-01-26T22:48:42.329Z,100350.40
2018-01-26T22:51:10.643Z,100342.05
2018-01-26T22:53:41.374Z,100346.39
2018-01-26T22:56:09.142Z,100346.34
2018-01-26T22:58:42.848Z,100348.06
2018-01-26T23:01:11.315Z,100350.30
2018-01-26T23:03:38.905Z,100355.27
2018-01-26T23:06:06.756Z,100354.49
2018-01-26T23:11:09.070Z,100358.34
2018-01-26T23:13:36.766Z,100357.98
2018-01-26T23:16:04.381Z,100370.18
2018-01-26T23:18:32.077Z,100373.90
2018-01-26T23:20:59.689Z,100379.20
2018-01-26T23:23:27.347Z,100376.62
2018-01-26T23:25:55.056Z,100382.02
2018-01-26T23:28:23.240Z,100382.67
2018-01-26T23:30:50.763Z,100380.57
2018-01-26T23:33:21.017Z,100380.81
2018-01-26T23:35:48.815Z,100378.36
2018-01-26T23:38:16.412Z,100388.14
2018-01-26T23:40:43.968Z,100386.79
2018-01-26T23:43:11.452Z,100385.72
2018-01-26T23:45:39.003Z,100389.72
2018-01-26T23:48:06.493Z,100402.48
2018-01-26T23:50:34.037Z,100402.48
2018-01-26T23:53:01.506Z,100398.62
2018-01-26T23:55:29.001Z,100402.51
2018-01-26T23:57:56.470Z,100400.00
